Time;durP1;ratioP1;P1;durP2;ratioP2;P2;SDS_P1;SDS_P2;PMS_P1;PMS_P2;Temp;Humidity;BMP_temperature;BMP_pressure;BME280_temperature;BME280_humidity;BME280_pressure;Samples;Min_cycle;Max_cycle;Signal;HPM_P1;HPM_P2
2023/03/05 00:01:33;;;;;;;11.10;6.32;;;;;;;;;;5083398;28;20048;-57
2023/03/05 00:03:59;;;;;;;10.98;7.05;;;;;;;;;;5079394;28;20032;-57
2023/03/05 00:06:26;;;;;;;13.10;7.50;;;;;;;;;;5082398;28;20518;-60
2023/03/05 00:08:54;;;;;;;14.68;7.38;;;;;;;;;;5084012;28;20040;-57
2023/03/05 00:11:20;;;;;;;10.30;6.38;;;;;;;;;;5081920;28;20428;-57
2023/03/05 00:13:47;;;;;;;9.85;6.82;;;;;;;;;;5081994;28;20556;-57
2023/03/05 00:16:14;;;;;;;13.73;7.32;;;;;;;;;;5079506;28;20052;-57
2023/03/05 00:18:40;;;;;;;12.68;7.00;;;;;;;;;;5080053;28;20095;-57
2023/03/05 00:21:19;;;;;;;12.80;7.82;;;;;;;;;;5082208;28;20040;-56
2023/03/05 00:23:45;;;;;;;12.95;7.43;;;;;;;;;;5081913;28;20557;-56
2023/03/05 00:26:11;;;;;;;10.63;7.40;;;;;;;;;;5083080;28;20546;-57
2023/03/05 00:28:37;;;;;;;11.73;6.65;;;;;;;;;;5081434;28;20041;-56
2023/03/05 00:31:04;;;;;;;9.27;6.65;;;;;;;;;;5077674;28;20041;-57
2023/03/05 00:33:30;;;;;;;14.80;8.52;;;;;;;;;;5080943;28;20040;-57
2023/03/05 00:36:00;;;;;;;11.23;7.43;;;;;;;;;;5084050;28;20052;-57
2023/03/05 00:38:26;;;;;;;11.35;6.95;;;;;;;;;;5080918;28;20041;-56
2023/03/05 00:40:52;;;;;;;8.80;5.90;;;;;;;;;;5076941;28;20048;-57
2023/03/05 00:43:18;;;;;;;15.07;8.95;;;;;;;;;;5077324;28;20379;-57
2023/03/05 00:45:44;;;;;;;11.48;7.30;;;;;;;;;;5081725;28;20122;-56
2023/03/05 00:48:10;;;;;;;10.77;5.68;;;;;;;;;;5080654;28;20138;-57
2023/03/05 00:50:37;;;;;;;15.13;6.45;;;;;;;;;;5083640;28;20036;-57
2023/03/05 00:53:03;;;;;;;10.57;6.10;;;;;;;;;;5081354;28;20576;-57
2023/03/05 00:55:29;;;;;;;10.70;6.47;;;;;;;;;;5083199;28;20071;-56
2023/03/05 00:57:55;;;;;;;11.55;7.28;;;;;;;;;;5083946;28;20040;-57
2023/03/05 01:00:21;;;;;;;11.27;6.25;;;;;;;;;;5081510;28;20600;-57
2023/03/05 01:02:47;;;;;;;9.73;5.95;;;;;;;;;;5081341;28;20078;-57
2023/03/05 01:05:14;;;;;;;9.48;6.68;;;;;;;;;;5082577;28;20044;-57
2023/03/05 01:07:40;;;;;;;13.30;7.05;;;;;;;;;;5080343;28;20466;-57
2023/03/05 01:10:07;;;;;;;15.30;8.15;;;;;;;;;;5081503;28;20051;-57
2023/03/05 01:12:33;;;;;;;12.60;7.82;;;;;;;;;;5081117;28;20122;-57
2023/03/05 01:14:59;;;;;;;10.18;6.72;;;;;;;;;;5081473;28;20073;-57
2023/03/05 01:17:26;;;;;;;8.45;6.00;;;;;;;;;;5080239;28;20062;-57
2023/03/05 01:19:52;;;;;;;13.88;5.82;;;;;;;;;;5080368;28;20111;-57
2023/03/05 01:22:18;;;;;;;11.55;5.65;;;;;;;;;;5082540;28;20445;-57
2023/03/05 01:24:44;;;;;;;10.30;6.60;;;;;;;;;;5082677;28;20041;-57
2023/03/05 01:27:10;;;;;;;16.88;6.20;;;;;;;;;;5081647;28;20045;-57
2023/03/05 01:29:36;;;;;;;8.82;5.43;;;;;;;;;;5077925;28;20087;-57
2023/03/05 01:32:03;;;;;;;8.90;5.70;;;;;;;;;;5080584;28;20565;-57
2023/03/05 01:34:29;;;;;;;14.02;6.30;;;;;;;;;;5079641;28;20049;-57
2023/03/05 01:36:55;;;;;;;10.45;4.90;;;;;;;;;;5079817;28;20040;-57
2023/03/05 01:39:21;;;;;;;9.57;5.40;;;;;;;;;;5081805;28;20046;-57
2023/03/05 01:41:47;;;;;;;12.90;5.55;;;;;;;;;;5079701;28;20045;-57
2023/03/05 01:44:23;;;;;;;9.10;6.13;;;;;;;;;;5081018;28;20048;-57
2023/03/05 01:46:49;;;;;;;10.68;5.88;;;;;;;;;;5077851;28;20091;-57
2023/03/05 01:49:26;;;;;;;13.63;5.43;;;;;;;;;;5080952;28;20522;-56
2023/03/05 01:51:53;;;;;;;10.02;6.30;;;;;;;;;;5081103;28;20834;-57
2023/03/05 01:54:22;;;;;;;12.13;7.70;;;;;;;;;;5077605;28;20544;-57
2023/03/05 01:56:49;;;;;;;11.50;6.68;;;;;;;;;;5081660;27;20039;-57
2023/03/05 01:59:16;;;;;;;10.32;7.20;;;;;;;;;;5080900;28;20120;-57
2023/03/05 02:01:43;;;;;;;9.05;5.22;;;;;;;;;;5080819;28;20040;-57
2023/03/05 02:04:14;;;;;;;9.13;5.97;;;;;;;;;;5080777;28;20584;-57
2023/03/05 02:06:41;;;;;;;10.98;6.55;;;;;;;;;;5079438;28;20051;-57
2023/03/05 02:09:07;;;;;;;8.60;4.50;;;;;;;;;;5080273;27;20800;-57
2023/03/05 02:11:34;;;;;;;9.85;5.95;;;;;;;;;;5078256;28;20718;-57
2023/03/05 02:14:00;;;;;;;13.73;6.68;;;;;;;;;;5078665;28;20053;-57
2023/03/05 02:16:27;;;;;;;8.20;4.70;;;;;;;;;;5079129;28;20846;-57
2023/03/05 02:18:54;;;;;;;13.75;7.05;;;;;;;;;;5079278;28;20088;-57
2023/03/05 02:21:27;;;;;;;14.43;6.38;;;;;;;;;;5077391;28;20860;-57
2023/03/05 02:23:53;;;;;;;17.27;7.60;;;;;;;;;;5078339;28;20041;-57
2023/03/05 02:26:19;;;;;;;10.95;6.63;;;;;;;;;;5075440;28;20091;-57
2023/03/05 02:28:57;;;;;;;11.05;6.93;;;;;;;;;;5074784;28;20049;-57
2023/03/05 02:31:24;;;;;;;8.38;4.93;;;;;;;;;;5074576;28;20046;-57
2023/03/05 02:33:51;;;;;;;13.32;6.45;;;;;;;;;;5079602;28;20451;-57
2023/03/05 02:36:17;;;;;;;12.70;7.25;;;;;;;;;;5080893;28;20546;-57
2023/03/05 02:38:44;;;;;;;10.23;6.03;;;;;;;;;;5077900;28;20044;-57
2023/03/05 02:41:10;;;;;;;14.38;7.13;;;;;;;;;;5077020;28;21210;-57
2023/03/05 02:43:36;;;;;;;11.43;5.93;;;;;;;;;;5077877;28;20045;-57
2023/03/05 02:46:02;;;;;;;13.68;7.22;;;;;;;;;;5074210;28;20609;-57
2023/03/05 02:48:28;;;;;;;12.40;7.82;;;;;;;;;;5080839;28;20526;-57
2023/03/05 02:50:55;;;;;;;10.48;6.47;;;;;;;;;;5076114;28;20044;-57
2023/03/05 02:53:22;;;;;;;11.95;6.28;;;;;;;;;;5078742;28;20029;-57
2023/03/05 02:55:48;;;;;;;9.18;6.38;;;;;;;;;;5078377;28;20118;-57
2023/03/05 02:58:15;;;;;;;9.50;6.50;;;;;;;;;;5076466;28;20535;-57
2023/03/05 03:00:41;;;;;;;13.40;7.57;;;;;;;;;;5076889;28;20043;-57
2023/03/05 03:03:07;;;;;;;9.93;6.13;;;;;;;;;;5076887;28;20048;-57
2023/03/05 03:05:34;;;;;;;11.68;6.78;;;;;;;;;;5080328;28;20193;-57
2023/03/05 03:08:00;;;;;;;11.13;5.65;;;;;;;;;;5075823;27;20142;-57
2023/03/05 03:10:26;;;;;;;15.52;6.38;;;;;;;;;;5079658;27;20055;-57
2023/03/05 03:12:52;;;;;;;11.30;6.75;;;;;;;;;;5077193;28;20048;-57
2023/03/05 03:15:18;;;;;;;10.57;6.78;;;;;;;;;;5077099;28;20565;-57
2023/03/05 03:17:44;;;;;;;11.13;6.85;;;;;;;;;;5073559;28;20076;-57
2023/03/05 03:20:15;;;;;;;11.48;6.93;;;;;;;;;;5079009;28;20600;-57
2023/03/05 03:22:42;;;;;;;16.48;7.28;;;;;;;;;;5077458;28;20036;-58
2023/03/05 03:25:09;;;;;;;10.38;7.32;;;;;;;;;;5079828;28;20409;-57
2023/03/05 03:27:36;;;;;;;14.38;7.95;;;;;;;;;;5077388;28;20102;-57
2023/03/05 03:30:03;;;;;;;10.23;6.68;;;;;;;;;;5078207;28;20065;-57
2023/03/05 03:32:30;;;;;;;9.68;6.07;;;;;;;;;;5073921;28;20037;-57
2023/03/05 03:34:56;;;;;;;11.48;7.05;;;;;;;;;;5078325;28;20037;-57
2023/03/05 03:37:22;;;;;;;10.35;6.57;;;;;;;;;;5079388;28;20072;-57
2023/03/05 03:39:48;;;;;;;11.07;6.50;;;;;;;;;;5079277;28;20105;-57
2023/03/05 03:42:18;;;;;;;9.93;6.85;;;;;;;;;;5080975;28;20119;-57
2023/03/05 03:44:44;;;;;;;12.95;6.50;;;;;;;;;;5082971;28;20071;-57
2023/03/05 03:47:11;;;;;;;10.38;6.63;;;;;;;;;;5082355;28;20091;-57
2023/03/05 03:49:37;;;;;;;16.88;8.02;;;;;;;;;;5084017;28;20056;-57
2023/03/05 03:52:03;;;;;;;13.18;7.82;;;;;;;;;;5082584;28;20092;-57
2023/03/05 03:54:29;;;;;;;10.45;6.93;;;;;;;;;;5081001;28;20123;-57
2023/03/05 03:56:55;;;;;;;12.48;7.32;;;;;;;;;;5083394;28;20056;-57
2023/03/05 03:59:21;;;;;;;8.23;5.07;;;;;;;;;;5082197;28;20171;-57
2023/03/05 04:01:47;;;;;;;15.48;8.82;;;;;;;;;;5080139;27;20595;-57
2023/03/05 04:04:13;;;;;;;13.05;6.97;;;;;;;;;;5085138;27;20045;-57
2023/03/05 04:06:40;;;;;;;15.02;7.40;;;;;;;;;;5084906;28;20099;-57
2023/03/05 04:09:07;;;;;;;14.20;7.70;;;;;;;;;;5082991;28;20110;-57
2023/03/05 04:11:33;;;;;;;15.93;8.15;;;;;;;;;;5082391;28;20044;-58
2023/03/05 04:13:59;;;;;;;11.95;7.05;;;;;;;;;;5082852;28;20055;-57
2023/03/05 04:16:25;;;;;;;11.45;7.38;;;;;;;;;;5080815;28;20056;-57
2023/03/05 04:18:52;;;;;;;13.27;7.47;;;;;;;;;;5085428;28;20578;-57
2023/03/05 04:21:18;;;;;;;14.85;7.63;;;;;;;;;;5082799;28;20533;-57
2023/03/05 04:23:44;;;;;;;14.50;7.20;;;;;;;;;;5083050;28;20070;-57
2023/03/05 04:26:10;;;;;;;13.73;7.97;;;;;;;;;;5079705;28;20648;-57
2023/03/05 04:28:36;;;;;;;13.45;7.75;;;;;;;;;;5084040;27;20722;-57
2023/03/05 04:31:03;;;;;;;13.27;7.07;;;;;;;;;;5082862;28;20033;-57
2023/03/05 04:33:29;;;;;;;13.70;7.25;;;;;;;;;;5082945;28;20541;-57
2023/03/05 04:35:55;;;;;;;12.18;7.30;;;;;;;;;;5082480;28;20042;-57
2023/03/05 04:38:21;;;;;;;11.50;8.02;;;;;;;;;;5082455;28;20047;-57
2023/03/05 04:40:47;;;;;;;12.68;7.13;;;;;;;;;;5084048;28;20133;-57
2023/03/05 04:43:13;;;;;;;31.23;8.30;;;;;;;;;;5081249;28;20051;-57
2023/03/05 04:45:40;;;;;;;12.90;7.78;;;;;;;;;;5081267;28;20783;-57
2023/03/05 04:48:06;;;;;;;12.88;6.50;;;;;;;;;;5082290;28;20515;-57
2023/03/05 04:50:32;;;;;;;11.63;6.95;;;;;;;;;;5081257;28;20887;-57
2023/03/05 04:52:59;;;;;;;13.80;7.35;;;;;;;;;;5080314;28;21351;-58
2023/03/05 04:55:25;;;;;;;10.73;8.52;;;;;;;;;;5082880;28;20071;-57
2023/03/05 04:57:51;;;;;;;15.20;6.88;;;;;;;;;;5080255;28;20044;-58
2023/03/05 05:00:18;;;;;;;11.00;6.88;;;;;;;;;;5082184;28;20279;-57
2023/03/05 05:02:45;;;;;;;11.77;8.02;;;;;;;;;;5076810;28;20050;-58
2023/03/05 05:05:12;;;;;;;15.48;7.95;;;;;;;;;;5082431;28;20075;-58
2023/03/05 05:07:38;;;;;;;12.05;7.32;;;;;;;;;;5081848;28;20033;-57
2023/03/05 05:10:06;;;;;;;12.20;7.25;;;;;;;;;;5080643;28;20106;-58
2023/03/05 05:12:33;;;;;;;11.55;7.43;;;;;;;;;;5081119;28;21136;-58
2023/03/05 05:14:59;;;;;;;16.90;7.28;;;;;;;;;;5079347;28;20049;-57
2023/03/05 05:17:26;;;;;;;11.98;7.25;;;;;;;;;;5081859;28;20036;-58
2023/03/05 05:19:53;;;;;;;12.40;6.97;;;;;;;;;;5079482;28;20610;-58
2023/03/05 05:22:19;;;;;;;12.70;7.20;;;;;;;;;;5081720;28;20537;-57
2023/03/05 05:24:45;;;;;;;12.40;6.85;;;;;;;;;;5080667;28;20040;-58
2023/03/05 05:27:11;;;;;;;10.85;6.72;;;;;;;;;;5082269;28;20044;-57
2023/03/05 05:29:37;;;;;;;9.70;5.78;;;;;;;;;;5080616;28;20528;-57
2023/03/05 05:32:03;;;;;;;15.43;7.40;;;;;;;;;;5080623;28;20045;-57
2023/03/05 05:34:29;;;;;;;12.80;7.35;;;;;;;;;;5079398;28;20040;-57
2023/03/05 05:36:55;;;;;;;13.38;6.78;;;;;;;;;;5077466;28;20045;-57
2023/03/05 05:39:22;;;;;;;12.18;6.90;;;;;;;;;;5079674;28;20952;-58
2023/03/05 05:41:52;;;;;;;16.35;8.23;;;;;;;;;;5079774;28;20090;-58
2023/03/05 05:44:18;;;;;;;11.90;7.68;;;;;;;;;;5082922;28;20493;-57
2023/03/05 05:46:44;;;;;;;12.52;7.25;;;;;;;;;;5079237;28;20044;-57
2023/03/05 05:49:10;;;;;;;20.75;8.43;;;;;;;;;;5080560;28;20468;-57
2023/03/05 05:51:36;;;;;;;12.63;6.95;;;;;;;;;;5082375;28;20556;-58
2023/03/05 05:54:02;;;;;;;14.07;7.35;;;;;;;;;;5081958;28;20119;-58
2023/03/05 05:56:28;;;;;;;12.13;6.85;;;;;;;;;;5081006;28;20123;-57
2023/03/05 05:58:54;;;;;;;14.40;8.73;;;;;;;;;;5083943;28;20455;-57
2023/03/05 06:01:26;;;;;;;10.25;7.97;;;;;;;;;;5081697;28;20130;-57
2023/03/05 06:03:52;;;;;;;12.68;7.32;;;;;;;;;;5080932;28;20054;-58
2023/03/05 06:06:19;;;;;;;13.13;8.05;;;;;;;;;;5079459;28;20041;-57
2023/03/05 06:08:46;;;;;;;12.00;7.47;;;;;;;;;;5084129;28;20044;-57
2023/03/05 06:11:12;;;;;;;16.17;9.80;;;;;;;;;;5078574;28;20068;-57
2023/03/05 06:13:38;;;;;;;15.18;7.40;;;;;;;;;;5078939;28;20059;-57
2023/03/05 06:16:06;;;;;;;12.68;8.13;;;;;;;;;;5080931;28;20113;-57
2023/03/05 06:18:33;;;;;;;12.68;7.47;;;;;;;;;;5082037;28;20526;-57
2023/03/05 06:21:00;;;;;;;12.32;8.27;;;;;;;;;;5079984;28;20036;-57
2023/03/05 06:23:27;;;;;;;16.63;9.02;;;;;;;;;;5081224;28;20122;-57
2023/03/05 06:25:54;;;;;;;12.70;7.82;;;;;;;;;;5078093;28;20050;-57
2023/03/05 06:28:20;;;;;;;12.90;7.70;;;;;;;;;;5080447;28;20028;-57
2023/03/05 06:30:47;;;;;;;12.85;7.25;;;;;;;;;;5078270;28;20044;-58
2023/03/05 06:33:13;;;;;;;12.60;7.30;;;;;;;;;;5078135;27;20048;-58
2023/03/05 06:35:39;;;;;;;16.60;7.07;;;;;;;;;;5080733;27;20722;-57
2023/03/05 06:38:06;;;;;;;13.32;8.05;;;;;;;;;;5080664;28;20032;-57
2023/03/05 06:40:32;;;;;;;11.73;7.25;;;;;;;;;;5076759;28;20493;-57
2023/03/05 06:42:58;;;;;;;12.82;7.97;;;;;;;;;;5078549;28;20048;-57
2023/03/05 06:45:24;;;;;;;15.35;8.25;;;;;;;;;;5080859;28;20040;-57
2023/03/05 06:47:50;;;;;;;15.77;8.30;;;;;;;;;;5080753;28;20047;-58
2023/03/05 06:50:16;;;;;;;13.85;7.78;;;;;;;;;;5082491;28;20051;-57
2023/03/05 06:52:42;;;;;;;14.02;8.15;;;;;;;;;;5079833;28;20986;-58
2023/03/05 06:55:09;;;;;;;12.60;7.72;;;;;;;;;;5074202;28;20037;-58
2023/03/05 06:57:36;;;;;;;11.93;8.05;;;;;;;;;;5080636;28;20036;-57
2023/03/05 07:00:08;;;;;;;13.93;8.55;;;;;;;;;;5080672;28;20182;-57
2023/03/05 07:02:34;;;;;;;13.43;7.20;;;;;;;;;;5076493;28;20092;-58
2023/03/05 07:05:00;;;;;;;15.30;8.38;;;;;;;;;;5080807;28;20594;-58
2023/03/05 07:07:27;;;;;;;12.43;6.63;;;;;;;;;;5079963;28;20242;-58
2023/03/05 07:09:53;;;;;;;14.82;7.32;;;;;;;;;;5080749;28;20043;-57
2023/03/05 07:12:19;;;;;;;13.25;7.97;;;;;;;;;;5079038;28;20059;-57
2023/03/05 07:14:45;;;;;;;13.60;8.05;;;;;;;;;;5082152;28;20059;-57
2023/03/05 07:17:14;;;;;;;14.82;8.00;;;;;;;;;;5079243;28;20075;-58
2023/03/05 07:19:40;;;;;;;15.70;8.18;;;;;;;;;;5084191;28;20593;-58
2023/03/05 07:22:06;;;;;;;14.68;8.68;;;;;;;;;;5082714;28;20048;-57
2023/03/05 07:24:32;;;;;;;14.38;8.10;;;;;;;;;;5080793;28;20083;-58
2023/03/05 07:26:59;;;;;;;16.40;8.75;;;;;;;;;;5082260;28;20532;-58
2023/03/05 07:29:26;;;;;;;14.02;8.13;;;;;;;;;;5080326;28;20037;-57
2023/03/05 07:31:52;;;;;;;14.70;8.70;;;;;;;;;;5080200;28;21261;-57
2023/03/05 07:34:18;;;;;;;14.80;8.57;;;;;;;;;;5084093;28;20094;-58
2023/03/05 07:36:45;;;;;;;21.83;8.15;;;;;;;;;;5083757;28;20131;-58
2023/03/05 07:39:12;;;;;;;15.68;7.40;;;;;;;;;;5084359;28;20045;-58
2023/03/05 07:41:38;;;;;;;18.77;8.13;;;;;;;;;;5082865;27;20134;-58
2023/03/05 07:44:05;;;;;;;16.88;8.95;;;;;;;;;;5083008;28;20046;-57
2023/03/05 07:46:32;;;;;;;14.18;8.77;;;;;;;;;;5083218;28;20040;-57
2023/03/05 07:48:59;;;;;;;18.23;10.40;;;;;;;;;;5080143;28;20600;-58
2023/03/05 07:51:26;;;;;;;17.55;9.05;;;;;;;;;;5085188;28;20049;-58
2023/03/05 07:53:52;;;;;;;15.38;7.80;;;;;;;;;;5083008;28;20036;-57
2023/03/05 07:56:34;;;;;;;14.82;8.57;;;;;;;;;;5083950;28;20556;-58
2023/03/05 07:59:07;;;;;;;16.90;8.57;;;;;;;;;;5083676;28;20087;-57
2023/03/05 08:01:34;;;;;;;15.77;9.48;;;;;;;;;;5078204;28;20048;-58
2023/03/05 08:04:00;;;;;;;16.50;8.82;;;;;;;;;;5082247;28;20072;-57
2023/03/05 08:06:27;;;;;;;14.02;6.82;;;;;;;;;;5082408;28;20051;-57
2023/03/05 08:08:53;;;;;;;18.38;9.20;;;;;;;;;;5082650;28;20058;-57
2023/03/05 08:11:19;;;;;;;16.02;9.40;;;;;;;;;;5084417;28;20067;-57
2023/03/05 08:13:45;;;;;;;14.35;9.13;;;;;;;;;;5080273;27;20159;-57
2023/03/05 08:16:13;;;;;;;16.17;8.98;;;;;;;;;;5080341;28;20672;-57
2023/03/05 08:18:39;;;;;;;20.00;9.15;;;;;;;;;;5079393;28;20075;-57
2023/03/05 08:21:05;;;;;;;14.88;9.10;;;;;;;;;;5082695;28;20044;-57
2023/03/05 08:23:33;;;;;;;15.00;9.82;;;;;;;;;;5079005;28;20052;-57
2023/03/05 08:25:59;;;;;;;15.27;8.60;;;;;;;;;;5079522;28;20037;-57
2023/03/05 08:28:25;;;;;;;16.52;9.30;;;;;;;;;;5079651;28;20040;-57
2023/03/05 08:30:51;;;;;;;16.45;8.60;;;;;;;;;;5072647;28;20054;-57
2023/03/05 08:33:18;;;;;;;17.55;9.52;;;;;;;;;;5084153;28;20045;-57
2023/03/05 08:35:44;;;;;;;15.82;9.27;;;;;;;;;;5076326;28;20567;-57
2023/03/05 08:38:10;;;;;;;13.90;9.20;;;;;;;;;;5064759;28;20052;-57
2023/03/05 08:40:36;;;;;;;16.40;8.85;;;;;;;;;;5074962;28;20047;-57
2023/03/05 08:43:04;;;;;;;17.40;9.30;;;;;;;;;;5078187;28;20040;-57
2023/03/05 08:45:30;;;;;;;18.50;10.73;;;;;;;;;;5075976;28;20636;-57
2023/03/05 08:47:57;;;;;;;13.95;9.98;;;;;;;;;;5078669;28;20040;-57
2023/03/05 08:50:24;;;;;;;15.07;9.65;;;;;;;;;;5082842;28;20075;-57
2023/03/05 08:52:50;;;;;;;15.32;9.75;;;;;;;;;;5074583;28;20158;-57
2023/03/05 08:55:16;;;;;;;16.38;8.82;;;;;;;;;;5072197;28;20088;-57
2023/03/05 08:57:43;;;;;;;15.93;7.95;;;;;;;;;;5082537;28;20040;-57
2023/03/05 09:00:11;;;;;;;24.55;10.82;;;;;;;;;;5080444;28;20049;-57
2023/03/05 09:02:37;;;;;;;17.67;9.32;;;;;;;;;;5081291;28;20043;-57
2023/03/05 09:05:03;;;;;;;17.30;9.23;;;;;;;;;;5079059;28;20040;-57
2023/03/05 09:07:29;;;;;;;18.10;10.05;;;;;;;;;;5076448;28;20040;-57
2023/03/05 09:09:55;;;;;;;19.95;10.02;;;;;;;;;;5083789;28;20252;-57
2023/03/05 09:12:22;;;;;;;18.42;10.02;;;;;;;;;;5083380;28;20905;-57
2023/03/05 09:14:48;;;;;;;15.15;8.63;;;;;;;;;;5079023;28;20045;-57
2023/03/05 09:17:14;;;;;;;17.50;9.00;;;;;;;;;;5080556;28;20530;-58
2023/03/05 09:19:40;;;;;;;17.50;9.23;;;;;;;;;;5082701;28;20565;-58
2023/03/05 09:22:06;;;;;;;17.42;9.55;;;;;;;;;;5076113;27;20127;-57
2023/03/05 09:24:32;;;;;;;18.25;9.70;;;;;;;;;;5081085;27;20078;-57
2023/03/05 09:26:59;;;;;;;16.77;8.77;;;;;;;;;;5079802;28;20051;-57
2023/03/05 09:29:26;;;;;;;17.73;10.02;;;;;;;;;;5080085;28;20558;-57
2023/03/05 09:31:52;;;;;;;21.73;11.02;;;;;;;;;;5079518;28;20099;-57
2023/03/05 09:34:18;;;;;;;17.88;9.82;;;;;;;;;;5078587;28;20036;-57
2023/03/05 09:36:44;;;;;;;15.65;10.15;;;;;;;;;;5076436;28;20550;-57
2023/03/05 09:39:10;;;;;;;15.70;9.07;;;;;;;;;;5081559;28;20531;-57
2023/03/05 09:41:50;;;;;;;18.92;10.93;;;;;;;;;;5078023;28;20102;-57
2023/03/05 09:44:28;;;;;;;17.60;10.43;;;;;;;;;;5077172;27;21747;-57
2023/03/05 09:46:55;;;;;;;20.67;9.77;;;;;;;;;;5080524;28;20549;-57
2023/03/05 09:49:32;;;;;;;14.60;9.02;;;;;;;;;;5081831;28;20052;-57
2023/03/05 09:52:06;;;;;;;14.60;7.90;;;;;;;;;;5082274;28;20071;-57
2023/03/05 09:54:37;;;;;;;16.75;9.20;;;;;;;;;;5081902;28;20127;-57
2023/03/05 09:57:04;;;;;;;14.18;7.60;;;;;;;;;;5080454;28;20114;-57
2023/03/05 09:59:34;;;;;;;16.88;9.68;;;;;;;;;;5078832;28;20510;-57
2023/03/05 10:02:22;;;;;;;17.60;8.13;;;;;;;;;;5076259;28;20771;-57
2023/03/05 10:04:52;;;;;;;13.45;7.35;;;;;;;;;;5076855;28;21005;-57
2023/03/05 10:07:27;;;;;;;11.65;7.30;;;;;;;;;;5081175;28;20602;-57
2023/03/05 10:09:55;;;;;;;17.08;7.88;;;;;;;;;;5080184;28;20135;-57
2023/03/05 10:12:42;;;;;;;17.48;8.45;;;;;;;;;;5076883;28;20046;-57
2023/03/05 10:15:15;;;;;;;22.85;9.82;;;;;;;;;;5078717;28;20056;-57
2023/03/05 10:18:00;;;;;;;16.17;9.15;;;;;;;;;;5076576;28;20576;-57
2023/03/05 10:20:26;;;;;;;10.95;7.53;;;;;;;;;;5078646;28;20047;-57
2023/03/05 10:23:03;;;;;;;14.98;7.00;;;;;;;;;;5076863;28;20080;-56
2023/03/05 10:25:48;;;;;;;12.25;8.02;;;;;;;;;;5073821;28;20071;-57
2023/03/05 10:28:21;;;;;;;13.63;7.57;;;;;;;;;;5075776;28;20926;-57
2023/03/05 10:31:06;;;;;;;14.50;9.20;;;;;;;;;;5074021;28;20040;-57
2023/03/05 10:33:42;;;;;;;14.02;8.07;;;;;;;;;;5076370;28;20043;-58
2023/03/05 10:36:18;;;;;;;11.45;7.55;;;;;;;;;;5073271;28;20078;-57
2023/03/05 10:39:07;;;;;;;14.07;9.02;;;;;;;;;;5074768;28;20048;-57
2023/03/05 10:41:36;;;;;;;15.95;9.98;;;;;;;;;;5065810;28;20056;-57
2023/03/05 10:44:05;;;;;;;21.10;9.18;;;;;;;;;;5073907;28;20040;-57
2023/03/05 10:46:34;;;;;;;14.15;7.43;;;;;;;;;;5070279;28;20033;-57
2023/03/05 10:49:22;;;;;;;12.52;7.05;;;;;;;;;;5073213;28;20604;-57
2023/03/05 10:51:53;;;;;;;12.23;7.63;;;;;;;;;;5070442;28;20388;-57
2023/03/05 10:54:32;;;;;;;15.15;7.35;;;;;;;;;;5074995;28;20039;-57
2023/03/05 10:57:13;;;;;;;16.55;7.05;;;;;;;;;;5076464;28;20095;-57
2023/03/05 10:59:43;;;;;;;14.65;8.88;;;;;;;;;;5076285;27;20376;-57
2023/03/05 11:02:09;;;;;;;13.10;6.18;;;;;;;;;;5074274;28;20388;-57
2023/03/05 11:04:37;;;;;;;12.95;7.45;;;;;;;;;;5072437;28;20045;-57
2023/03/05 11:07:15;;;;;;;16.77;8.50;;;;;;;;;;5075456;28;20458;-57
2023/03/05 11:09:42;;;;;;;11.00;6.50;;;;;;;;;;5075836;28;20044;-57
2023/03/05 11:12:21;;;;;;;10.45;6.90;;;;;;;;;;5075999;28;20045;-57
2023/03/05 11:15:02;;;;;;;10.45;6.18;;;;;;;;;;5074334;28;20060;-57
2023/03/05 11:17:34;;;;;;;14.17;6.93;;;;;;;;;;5073340;28;20044;-57
2023/03/05 11:20:18;;;;;;;7.18;3.13;;;;;;;;;;5077891;28;20321;-57
2023/03/05 11:23:01;;;;;;;9.27;6.15;;;;;;;;;;5074949;28;20052;-57
2023/03/05 11:25:28;;;;;;;8.60;5.53;;;;;;;;;;5079263;28;20027;-57
2023/03/05 11:27:55;;;;;;;9.57;5.22;;;;;;;;;;5077311;28;20044;-57
2023/03/05 11:30:24;;;;;;;10.02;6.35;;;;;;;;;;5078358;28;20118;-57
2023/03/05 11:33:06;;;;;;;11.20;5.90;;;;;;;;;;5077396;28;20040;-57
2023/03/05 11:35:33;;;;;;;7.13;4.80;;;;;;;;;;5076191;27;20972;-57
2023/03/05 11:38:03;;;;;;;7.85;4.55;;;;;;;;;;5075803;28;20096;-57
2023/03/05 11:40:30;;;;;;;11.70;6.07;;;;;;;;;;5076075;28;20070;-57
2023/03/05 11:42:58;;;;;;;9.55;4.72;;;;;;;;;;5066826;28;20448;-57
2023/03/05 11:45:25;;;;;;;8.30;3.95;;;;;;;;;;5075140;28;20037;-57
2023/03/05 11:47:52;;;;;;;9.93;4.13;;;;;;;;;;5075303;28;20048;-57
2023/03/05 11:50:22;;;;;;;8.98;4.75;;;;;;;;;;5074531;28;20120;-57
2023/03/05 11:52:51;;;;;;;8.73;4.00;;;;;;;;;;5078648;28;20517;-57
2023/03/05 11:55:21;;;;;;;7.60;4.18;;;;;;;;;;5076756;28;20036;-57
2023/03/05 11:57:50;;;;;;;6.72;3.92;;;;;;;;;;5075387;28;20040;-57
2023/03/05 12:00:17;;;;;;;5.50;3.35;;;;;;;;;;5081850;28;20109;-57
2023/03/05 12:02:44;;;;;;;6.35;3.35;;;;;;;;;;5081233;28;20102;-57
2023/03/05 12:05:14;;;;;;;7.63;4.72;;;;;;;;;;5081156;28;20509;-57
2023/03/05 12:07:42;;;;;;;5.63;3.00;;;;;;;;;;5085459;28;20434;-57
2023/03/05 12:10:14;;;;;;;5.93;3.17;;;;;;;;;;5084293;28;20036;-57
2023/03/05 12:12:43;;;;;;;5.32;2.63;;;;;;;;;;5086087;28;20044;-57
2023/03/05 12:15:28;;;;;;;5.43;2.83;;;;;;;;;;5083006;28;20158;-57
2023/03/05 12:18:02;;;;;;;4.60;2.20;;;;;;;;;;5082636;28;20503;-57
2023/03/05 12:20:42;;;;;;;4.78;2.80;;;;;;;;;;5083382;28;20050;-57
2023/03/05 12:23:17;;;;;;;6.50;3.60;;;;;;;;;;5082888;28;20594;-57
2023/03/05 12:25:48;;;;;;;4.97;3.00;;;;;;;;;;5079177;28;20044;-57
2023/03/05 12:28:16;;;;;;;4.38;2.55;;;;;;;;;;5076920;28;20139;-57
2023/03/05 12:30:42;;;;;;;5.00;3.47;;;;;;;;;;5080121;28;20110;-57
2023/03/05 12:33:27;;;;;;;6.50;3.90;;;;;;;;;;5079654;28;20123;-57
2023/03/05 12:35:53;;;;;;;2.92;1.65;;;;;;;;;;5081264;28;20035;-57
2023/03/05 12:38:37;;;;;;;4.75;2.00;;;;;;;;;;5080923;28;20673;-57
2023/03/05 12:41:29;;;;;;;6.00;2.65;;;;;;;;;;5080362;28;20124;-56
2023/03/05 12:44:04;;;;;;;4.82;2.33;;;;;;;;;;5077452;28;20048;-57
2023/03/05 12:46:36;;;;;;;5.97;2.55;;;;;;;;;;5080004;28;20050;-57
2023/03/05 12:49:27;;;;;;;3.58;2.20;;;;;;;;;;5081569;28;20036;-57
2023/03/05 12:51:54;;;;;;;4.60;2.38;;;;;;;;;;5080217;27;20668;-57
2023/03/05 12:54:40;;;;;;;4.38;2.08;;;;;;;;;;5076201;28;20616;-57
2023/03/05 12:57:28;;;;;;;3.22;1.88;;;;;;;;;;5082621;28;20089;-57
2023/03/05 13:00:13;;;;;;;3.22;1.70;;;;;;;;;;5080636;28;20043;-57
2023/03/05 13:02:43;;;;;;;3.42;1.75;;;;;;;;;;5080952;28;20603;-57
2023/03/05 13:05:19;;;;;;;4.72;2.22;;;;;;;;;;5079541;28;20055;-57
2023/03/05 13:07:45;;;;;;;4.35;2.40;;;;;;;;;;5073328;28;20044;-57
2023/03/05 13:10:25;;;;;;;5.97;2.03;;;;;;;;;;5082763;28;20044;-56
2023/03/05 13:12:52;;;;;;;6.47;3.33;;;;;;;;;;5078209;28;20040;-57
2023/03/05 13:15:18;;;;;;;3.90;2.50;;;;;;;;;;5073491;28;20179;-57
2023/03/05 13:17:50;;;;;;;2.95;1.75;;;;;;;;;;5081502;28;20047;-57
2023/03/05 13:20:28;;;;;;;3.75;2.10;;;;;;;;;;5081973;28;20044;-57
2023/03/05 13:23:03;;;;;;;3.20;2.20;;;;;;;;;;5075327;28;20041;-57
2023/03/05 13:25:31;;;;;;;5.32;2.60;;;;;;;;;;5069104;28;20052;-57
2023/03/05 13:28:04;;;;;;;4.13;2.28;;;;;;;;;;5077349;28;20037;-57
2023/03/05 13:30:30;;;;;;;3.20;2.17;;;;;;;;;;5076320;28;20567;-57
2023/03/05 13:33:03;;;;;;;2.13;1.60;;;;;;;;;;5075967;28;20085;-57
2023/03/05 13:35:33;;;;;;;4.40;1.98;;;;;;;;;;5079011;28;20045;-57
2023/03/05 13:38:00;;;;;;;4.07;2.00;;;;;;;;;;5079999;28;20074;-57
2023/03/05 13:40:30;;;;;;;2.95;2.15;;;;;;;;;;5078018;28;20042;-57
2023/03/05 13:43:09;;;;;;;5.20;2.47;;;;;;;;;;5077491;28;20040;-57
2023/03/05 13:45:35;;;;;;;3.90;2.17;;;;;;;;;;5079701;28;20051;-57
2023/03/05 13:48:02;;;;;;;4.35;2.00;;;;;;;;;;5077210;28;20055;-57
2023/03/05 13:50:29;;;;;;;3.95;2.67;;;;;;;;;;5076149;28;20041;-57
2023/03/05 13:52:56;;;;;;;4.32;2.53;;;;;;;;;;5076981;28;20037;-57
2023/03/05 13:55:22;;;;;;;4.18;2.25;;;;;;;;;;5079624;28;20055;-57
2023/03/05 13:57:49;;;;;;;5.95;2.30;;;;;;;;;;5078390;28;20550;-57
2023/03/05 14:00:25;;;;;;;6.00;3.00;;;;;;;;;;5077108;28;20134;-57
2023/03/05 14:02:52;;;;;;;5.07;2.97;;;;;;;;;;5078895;28;20036;-57
2023/03/05 14:05:18;;;;;;;4.82;2.50;;;;;;;;;;5079232;28;20048;-57
2023/03/05 14:07:46;;;;;;;3.92;2.22;;;;;;;;;;5077614;28;20043;-57
2023/03/05 14:10:33;;;;;;;4.80;2.47;;;;;;;;;;5075807;28;20036;-57
2023/03/05 14:13:01;;;;;;;4.82;2.72;;;;;;;;;;5077541;28;20124;-57
2023/03/05 14:15:32;;;;;;;4.25;2.58;;;;;;;;;;5073832;28;20138;-57
2023/03/05 14:18:27;;;;;;;4.95;2.50;;;;;;;;;;5078696;28;20044;-57
2023/03/05 14:20:59;;;;;;;7.13;2.72;;;;;;;;;;5073789;28;20048;-57
2023/03/05 14:23:25;;;;;;;5.82;2.63;;;;;;;;;;5077574;28;20102;-57
2023/03/05 14:25:52;;;;;;;5.03;2.20;;;;;;;;;;5075009;28;20767;-57
2023/03/05 14:28:18;;;;;;;7.85;2.45;;;;;;;;;;5072859;28;20036;-57
2023/03/05 14:30:45;;;;;;;4.43;2.45;;;;;;;;;;5074024;28;20083;-57
2023/03/05 14:33:12;;;;;;;4.70;2.53;;;;;;;;;;5079093;28;20541;-57
2023/03/05 14:35:39;;;;;;;4.47;2.72;;;;;;;;;;5075596;28;20047;-57
2023/03/05 14:38:07;;;;;;;4.57;2.60;;;;;;;;;;5076249;28;20625;-58
2023/03/05 14:40:34;;;;;;;5.35;2.75;;;;;;;;;;5073358;28;20043;-57
2023/03/05 14:43:04;;;;;;;3.65;2.20;;;;;;;;;;5073118;28;20043;-57